sensor_id;sensor_type;location;lat;lon;timestamp;P1;durP1;ratioP1;P2;durP2;ratioP2
7657;SDS011;8462;53.156;8.220;2022-10-31T00:00:04;28.57;;;16.30;;
7657;SDS011;8462;53.156;8.220;2022-10-31T00:02:36;33.50;;;16.80;;
7657;SDS011;8462;53.156;8.220;2022-10-31T00:05:03;33.63;;;18.00;;
7657;SDS011;8462;53.156;8.220;2022-10-31T00:07:30;31.90;;;16.83;;
7657;SDS011;8462;53.156;8.220;2022-10-31T00:09:57;28.60;;;16.33;;
7657;SDS011;8462;53.156;8.220;2022-10-31T00:12:26;28.87;;;16.03;;
7657;SDS011;8462;53.156;8.220;2022-10-31T00:14:53;29.40;;;16.73;;
7657;SDS011;8462;53.156;8.220;2022-10-31T00:17:20;26.90;;;15.70;;
7657;SDS011;8462;53.156;8.220;2022-10-31T00:19:47;28.50;;;16.03;;
7657;SDS011;8462;53.156;8.220;2022-10-31T00:22:14;30.40;;;16.47;;
7657;SDS011;8462;53.156;8.220;2022-10-31T00:24:41;30.07;;;16.37;;
7657;SDS011;8462;53.156;8.220;2022-10-31T00:27:08;28.10;;;14.93;;
7657;SDS011;8462;53.156;8.220;2022-10-31T00:29:36;29.97;;;14.77;;
7657;SDS011;8462;53.156;8.220;2022-10-31T00:32:04;32.53;;;15.87;;
7657;SDS011;8462;53.156;8.220;2022-10-31T00:34:30;31.17;;;15.73;;
7657;SDS011;8462;53.156;8.220;2022-10-31T00:36:58;28.50;;;16.57;;
7657;SDS011;8462;53.156;8.220;2022-10-31T00:39:25;28.60;;;15.67;;
7657;SDS011;8462;53.156;8.220;2022-10-31T00:41:52;28.40;;;16.90;;
7657;SDS011;8462;53.156;8.220;2022-10-31T00:44:19;28.23;;;15.50;;
7657;SDS011;8462;53.156;8.220;2022-10-31T00:46:47;32.17;;;16.47;;
7657;SDS011;8462;53.156;8.220;2022-10-31T00:49:18;30.60;;;16.20;;
7657;SDS011;8462;53.156;8.220;2022-10-31T00:51:45;28.87;;;14.97;;
7657;SDS011;8462;53.156;8.220;2022-10-31T00:54:13;28.03;;;15.63;;
7657;SDS011;8462;53.156;8.220;2022-10-31T00:56:40;28.93;;;16.20;;
7657;SDS011;8462;53.156;8.220;2022-10-31T00:59:07;26.97;;;15.70;;
7657;SDS011;8462;53.156;8.220;2022-10-31T01:01:34;29.30;;;15.17;;
7657;SDS011;8462;53.156;8.220;2022-10-31T01:04:02;35.07;;;17.43;;
7657;SDS011;8462;53.156;8.220;2022-10-31T01:06:31;29.53;;;16.23;;
7657;SDS011;8462;53.156;8.220;2022-10-31T01:08:58;22.70;;;15.00;;
7657;SDS011;8462;53.156;8.220;2022-10-31T01:11:25;32.47;;;15.77;;
7657;SDS011;8462;53.156;8.220;2022-10-31T01:13:52;30.13;;;16.47;;
7657;SDS011;8462;53.156;8.220;2022-10-31T01:16:21;28.13;;;15.30;;
7657;SDS011;8462;53.156;8.220;2022-10-31T01:18:50;33.53;;;15.97;;
7657;SDS011;8462;53.156;8.220;2022-10-31T01:21:20;32.00;;;15.63;;
7657;SDS011;8462;53.156;8.220;2022-10-31T01:23:48;29.17;;;16.90;;
7657;SDS011;8462;53.156;8.220;2022-10-31T01:26:16;32.20;;;15.37;;
7657;SDS011;8462;53.156;8.220;2022-10-31T01:28:45;28.87;;;15.57;;
7657;SDS011;8462;53.156;8.220;2022-10-31T01:31:13;32.30;;;15.57;;
7657;SDS011;8462;53.156;8.220;2022-10-31T01:33:40;32.60;;;17.13;;
7657;SDS011;8462;53.156;8.220;2022-10-31T01:36:11;30.47;;;15.80;;
7657;SDS011;8462;53.156;8.220;2022-10-31T01:38:42;30.00;;;16.97;;
7657;SDS011;8462;53.156;8.220;2022-10-31T01:41:10;28.80;;;15.90;;
7657;SDS011;8462;53.156;8.220;2022-10-31T01:43:41;26.97;;;15.10;;
7657;SDS011;8462;53.156;8.220;2022-10-31T01:46:13;31.47;;;16.13;;
7657;SDS011;8462;53.156;8.220;2022-10-31T01:48:43;27.77;;;15.87;;
7657;SDS011;8462;53.156;8.220;2022-10-31T01:51:11;29.83;;;17.20;;
7657;SDS011;8462;53.156;8.220;2022-10-31T01:53:43;29.10;;;15.73;;
7657;SDS011;8462;53.156;8.220;2022-10-31T01:56:11;30.57;;;16.67;;
7657;SDS011;8462;53.156;8.220;2022-10-31T01:58:39;32.20;;;16.87;;
7657;SDS011;8462;53.156;8.220;2022-10-31T02:01:07;34.57;;;18.17;;
7657;SDS011;8462;53.156;8.220;2022-10-31T02:03:34;35.00;;;18.37;;
7657;SDS011;8462;53.156;8.220;2022-10-31T02:06:02;30.17;;;16.87;;
7657;SDS011;8462;53.156;8.220;2022-10-31T02:08:35;31.47;;;17.67;;
7657;SDS011;8462;53.156;8.220;2022-10-31T02:11:04;29.23;;;16.87;;
7657;SDS011;8462;53.156;8.220;2022-10-31T02:13:32;32.33;;;16.93;;
7657;SDS011;8462;53.156;8.220;2022-10-31T02:16:04;33.23;;;17.47;;
7657;SDS011;8462;53.156;8.220;2022-10-31T02:18:32;32.07;;;16.77;;
7657;SDS011;8462;53.156;8.220;2022-10-31T02:21:01;31.27;;;17.43;;
7657;SDS011;8462;53.156;8.220;2022-10-31T02:26:48;31.93;;;16.30;;
7657;SDS011;8462;53.156;8.220;2022-10-31T02:29:29;35.40;;;16.83;;
7657;SDS011;8462;53.156;8.220;2022-10-31T02:32:09;30.10;;;16.97;;
7657;SDS011;8462;53.156;8.220;2022-10-31T02:34:44;28.80;;;16.93;;
7657;SDS011;8462;53.156;8.220;2022-10-31T02:37:21;26.60;;;15.83;;
7657;SDS011;8462;53.156;8.220;2022-10-31T02:39:56;27.63;;;16.47;;
7657;SDS011;8462;53.156;8.220;2022-10-31T02:42:46;35.03;;;17.00;;
7657;SDS011;8462;53.156;8.220;2022-10-31T02:45:20;30.60;;;16.70;;
7657;SDS011;8462;53.156;8.220;2022-10-31T02:47:53;29.10;;;16.23;;
7657;SDS011;8462;53.156;8.220;2022-10-31T02:50:26;28.23;;;17.03;;
7657;SDS011;8462;53.156;8.220;2022-10-31T02:52:56;28.67;;;16.50;;
7657;SDS011;8462;53.156;8.220;2022-10-31T02:55:44;33.00;;;16.03;;
7657;SDS011;8462;53.156;8.220;2022-10-31T02:58:21;25.00;;;15.23;;
7657;SDS011;8462;53.156;8.220;2022-10-31T03:00:56;26.83;;;15.77;;
7657;SDS011;8462;53.156;8.220;2022-10-31T03:03:40;30.30;;;15.53;;
7657;SDS011;8462;53.156;8.220;2022-10-31T03:06:17;27.77;;;13.90;;
7657;SDS011;8462;53.156;8.220;2022-10-31T03:08:53;31.40;;;14.87;;
7657;SDS011;8462;53.156;8.220;2022-10-31T03:11:28;27.47;;;15.37;;
7657;SDS011;8462;53.156;8.220;2022-10-31T03:14:00;33.53;;;15.37;;
7657;SDS011;8462;53.156;8.220;2022-10-31T03:16:38;27.50;;;15.07;;
7657;SDS011;8462;53.156;8.220;2022-10-31T03:19:13;28.00;;;14.47;;
7657;SDS011;8462;53.156;8.220;2022-10-31T03:21:44;29.43;;;15.23;;
7657;SDS011;8462;53.156;8.220;2022-10-31T03:24:15;24.30;;;14.77;;
7657;SDS011;8462;53.156;8.220;2022-10-31T03:26:42;24.37;;;14.87;;
7657;SDS011;8462;53.156;8.220;2022-10-31T03:29:14;29.67;;;15.43;;
7657;SDS011;8462;53.156;8.220;2022-10-31T03:31:44;27.20;;;14.70;;
7657;SDS011;8462;53.156;8.220;2022-10-31T03:34:17;29.27;;;15.50;;
7657;SDS011;8462;53.156;8.220;2022-10-31T03:36:46;32.43;;;16.60;;
7657;SDS011;8462;53.156;8.220;2022-10-31T03:39:17;28.63;;;16.07;;
7657;SDS011;8462;53.156;8.220;2022-10-31T03:41:47;27.80;;;15.20;;
7657;SDS011;8462;53.156;8.220;2022-10-31T03:44:19;28.73;;;14.87;;
7657;SDS011;8462;53.156;8.220;2022-10-31T03:46:56;31.10;;;14.30;;
7657;SDS011;8462;53.156;8.220;2022-10-31T03:49:25;35.10;;;15.47;;
7657;SDS011;8462;53.156;8.220;2022-10-31T03:51:54;32.03;;;15.17;;
7657;SDS011;8462;53.156;8.220;2022-10-31T03:54:27;34.73;;;16.53;;
7657;SDS011;8462;53.156;8.220;2022-10-31T03:57:01;26.47;;;13.93;;
7657;SDS011;8462;53.156;8.220;2022-10-31T03:59:34;30.20;;;15.23;;
7657;SDS011;8462;53.156;8.220;2022-10-31T04:02:05;31.23;;;14.33;;
7657;SDS011;8462;53.156;8.220;2022-10-31T04:04:38;32.33;;;15.53;;
7657;SDS011;8462;53.156;8.220;2022-10-31T04:07:05;26.47;;;15.27;;
7657;SDS011;8462;53.156;8.220;2022-10-31T04:09:35;30.43;;;15.63;;
7657;SDS011;8462;53.156;8.220;2022-10-31T04:12:04;28.17;;;15.40;;
7657;SDS011;8462;53.156;8.220;2022-10-31T04:15:03;34.97;;;16.43;;
7657;SDS011;8462;53.156;8.220;2022-10-31T04:17:34;34.10;;;15.20;;
7657;SDS011;8462;53.156;8.220;2022-10-31T04:20:06;26.07;;;13.67;;
7657;SDS011;8462;53.156;8.220;2022-10-31T04:22:34;53.77;;;18.53;;
7657;SDS011;8462;53.156;8.220;2022-10-31T04:25:01;40.47;;;15.33;;
7657;SDS011;8462;53.156;8.220;2022-10-31T04:27:28;28.27;;;14.23;;
7657;SDS011;8462;53.156;8.220;2022-10-31T04:29:55;29.23;;;13.67;;
7657;SDS011;8462;53.156;8.220;2022-10-31T04:32:23;34.03;;;13.80;;
7657;SDS011;8462;53.156;8.220;2022-10-31T04:34:51;37.90;;;13.33;;
7657;SDS011;8462;53.156;8.220;2022-10-31T04:37:20;32.97;;;17.10;;
7657;SDS011;8462;53.156;8.220;2022-10-31T04:39:47;25.10;;;13.53;;
7657;SDS011;8462;53.156;8.220;2022-10-31T04:42:32;24.57;;;13.53;;
7657;SDS011;8462;53.156;8.220;2022-10-31T04:45:02;31.97;;;14.80;;
7657;SDS011;8462;53.156;8.220;2022-10-31T04:47:31;24.40;;;13.93;;
7657;SDS011;8462;53.156;8.220;2022-10-31T04:49:59;29.27;;;13.43;;
7657;SDS011;8462;53.156;8.220;2022-10-31T04:52:28;23.30;;;13.40;;
7657;SDS011;8462;53.156;8.220;2022-10-31T04:54:54;22.73;;;12.77;;
7657;SDS011;8462;53.156;8.220;2022-10-31T04:57:48;24.20;;;12.97;;
7657;SDS011;8462;53.156;8.220;2022-10-31T05:00:18;39.90;;;14.53;;
7657;SDS011;8462;53.156;8.220;2022-10-31T05:02:49;33.70;;;13.30;;
7657;SDS011;8462;53.156;8.220;2022-10-31T05:05:19;31.03;;;13.63;;
7657;SDS011;8462;53.156;8.220;2022-10-31T05:07:49;32.93;;;13.33;;
7657;SDS011;8462;53.156;8.220;2022-10-31T05:10:19;22.57;;;13.47;;
7657;SDS011;8462;53.156;8.220;2022-10-31T05:12:50;30.40;;;15.43;;
7657;SDS011;8462;53.156;8.220;2022-10-31T05:15:33;53.60;;;16.27;;
7657;SDS011;8462;53.156;8.220;2022-10-31T05:18:19;30.87;;;14.77;;
7657;SDS011;8462;53.156;8.220;2022-10-31T05:21:08;37.27;;;14.47;;
7657;SDS011;8462;53.156;8.220;2022-10-31T05:23:51;41.57;;;13.43;;
7657;SDS011;8462;53.156;8.220;2022-10-31T05:26:19;47.27;;;14.23;;
7657;SDS011;8462;53.156;8.220;2022-10-31T05:28:46;38.30;;;15.87;;
7657;SDS011;8462;53.156;8.220;2022-10-31T05:31:14;37.93;;;14.73;;
7657;SDS011;8462;53.156;8.220;2022-10-31T05:33:41;32.80;;;15.00;;
7657;SDS011;8462;53.156;8.220;2022-10-31T05:36:27;38.77;;;15.17;;
7657;SDS011;8462;53.156;8.220;2022-10-31T05:39:18;38.80;;;14.73;;
7657;SDS011;8462;53.156;8.220;2022-10-31T05:41:47;29.30;;;14.53;;
7657;SDS011;8462;53.156;8.220;2022-10-31T05:44:20;25.17;;;14.17;;
7657;SDS011;8462;53.156;8.220;2022-10-31T05:47:07;37.10;;;14.53;;
7657;SDS011;8462;53.156;8.220;2022-10-31T05:49:53;23.03;;;14.20;;
7657;SDS011;8462;53.156;8.220;2022-10-31T05:52:44;30.47;;;15.17;;
7657;SDS011;8462;53.156;8.220;2022-10-31T05:55:26;47.13;;;14.60;;
7657;SDS011;8462;53.156;8.220;2022-10-31T05:58:16;27.53;;;14.20;;
7657;SDS011;8462;53.156;8.220;2022-10-31T06:00:49;24.17;;;13.53;;
7657;SDS011;8462;53.156;8.220;2022-10-31T06:03:16;30.87;;;14.60;;
7657;SDS011;8462;53.156;8.220;2022-10-31T06:05:50;28.20;;;14.47;;
7657;SDS011;8462;53.156;8.220;2022-10-31T06:08:17;30.20;;;13.93;;
7657;SDS011;8462;53.156;8.220;2022-10-31T06:10:46;31.07;;;14.73;;
7657;SDS011;8462;53.156;8.220;2022-10-31T06:13:17;25.40;;;14.30;;
7657;SDS011;8462;53.156;8.220;2022-10-31T06:15:51;29.50;;;13.37;;
7657;SDS011;8462;53.156;8.220;2022-10-31T06:18:22;29.60;;;14.40;;
7657;SDS011;8462;53.156;8.220;2022-10-31T06:20:50;23.33;;;13.47;;
7657;SDS011;8462;53.156;8.220;2022-10-31T06:23:17;26.33;;;14.57;;
7657;SDS011;8462;53.156;8.220;2022-10-31T06:25:50;30.80;;;14.43;;
7657;SDS011;8462;53.156;8.220;2022-10-31T06:28:17;32.40;;;15.60;;
7657;SDS011;8462;53.156;8.220;2022-10-31T06:31:04;27.00;;;14.80;;
7657;SDS011;8462;53.156;8.220;2022-10-31T06:33:32;39.80;;;16.13;;
7657;SDS011;8462;53.156;8.220;2022-10-31T06:36:00;47.67;;;16.70;;
7657;SDS011;8462;53.156;8.220;2022-10-31T06:38:28;29.33;;;15.60;;
7657;SDS011;8462;53.156;8.220;2022-10-31T06:40:57;39.83;;;16.20;;
7657;SDS011;8462;53.156;8.220;2022-10-31T06:43:25;39.33;;;17.37;;
7657;SDS011;8462;53.156;8.220;2022-10-31T06:46:12;33.93;;;17.83;;
7657;SDS011;8462;53.156;8.220;2022-10-31T06:48:46;44.43;;;16.57;;
7657;SDS011;8462;53.156;8.220;2022-10-31T06:51:31;35.60;;;16.13;;
7657;SDS011;8462;53.156;8.220;2022-10-31T06:53:58;30.97;;;16.03;;
7657;SDS011;8462;53.156;8.220;2022-10-31T06:56:26;30.30;;;17.07;;
7657;SDS011;8462;53.156;8.220;2022-10-31T06:58:55;46.30;;;17.83;;
7657;SDS011;8462;53.156;8.220;2022-10-31T07:01:54;40.27;;;17.37;;
7657;SDS011;8462;53.156;8.220;2022-10-31T07:04:23;55.43;;;17.03;;
7657;SDS011;8462;53.156;8.220;2022-10-31T07:06:50;31.27;;;16.07;;
7657;SDS011;8462;53.156;8.220;2022-10-31T07:09:18;39.33;;;17.07;;
7657;SDS011;8462;53.156;8.220;2022-10-31T07:11:47;36.30;;;16.13;;
7657;SDS011;8462;53.156;8.220;2022-10-31T07:14:14;31.50;;;14.60;;
7657;SDS011;8462;53.156;8.220;2022-10-31T07:16:41;60.13;;;17.47;;
7657;SDS011;8462;53.156;8.220;2022-10-31T07:19:11;36.77;;;15.87;;
7657;SDS011;8462;53.156;8.220;2022-10-31T07:21:38;48.30;;;15.27;;
7657;SDS011;8462;53.156;8.220;2022-10-31T07:24:06;36.77;;;17.63;;
7657;SDS011;8462;53.156;8.220;2022-10-31T07:26:39;43.83;;;17.60;;
7657;SDS011;8462;53.156;8.220;2022-10-31T07:29:09;54.80;;;18.03;;
7657;SDS011;8462;53.156;8.220;2022-10-31T07:31:37;30.40;;;16.03;;
7657;SDS011;8462;53.156;8.220;2022-10-31T07:34:11;32.70;;;16.50;;
7657;SDS011;8462;53.156;8.220;2022-10-31T07:36:38;23.60;;;14.60;;
7657;SDS011;8462;53.156;8.220;2022-10-31T07:39:05;36.83;;;17.07;;
7657;SDS011;8462;53.156;8.220;2022-10-31T07:41:34;34.83;;;15.87;;
7657;SDS011;8462;53.156;8.220;2022-10-31T07:44:01;26.70;;;15.53;;
7657;SDS011;8462;53.156;8.220;2022-10-31T07:46:29;29.03;;;16.73;;
7657;SDS011;8462;53.156;8.220;2022-10-31T07:49:28;26.83;;;16.80;;
7657;SDS011;8462;53.156;8.220;2022-10-31T07:52:14;27.27;;;16.60;;
7657;SDS011;8462;53.156;8.220;2022-10-31T07:55:13;30.90;;;16.60;;
7657;SDS011;8462;53.156;8.220;2022-10-31T07:57:45;35.70;;;16.87;;
7657;SDS011;8462;53.156;8.220;2022-10-31T08:00:12;25.67;;;17.47;;
7657;SDS011;8462;53.156;8.220;2022-10-31T08:02:44;27.83;;;16.40;;
7657;SDS011;8462;53.156;8.220;2022-10-31T08:05:31;26.37;;;15.87;;
7657;SDS011;8462;53.156;8.220;2022-10-31T08:08:28;25.77;;;15.63;;
7657;SDS011;8462;53.156;8.220;2022-10-31T08:10:55;25.70;;;16.03;;
7657;SDS011;8462;53.156;8.220;2022-10-31T08:13:24;23.30;;;15.43;;
7657;SDS011;8462;53.156;8.220;2022-10-31T08:15:52;20.60;;;15.03;;
7657;SDS011;8462;53.156;8.220;2022-10-31T08:18:25;20.37;;;13.90;;
7657;SDS011;8462;53.156;8.220;2022-10-31T08:20:53;28.20;;;16.00;;
7657;SDS011;8462;53.156;8.220;2022-10-31T08:23:20;25.47;;;16.40;;
7657;SDS011;8462;53.156;8.220;2022-10-31T08:25:48;29.07;;;15.33;;
7657;SDS011;8462;53.156;8.220;2022-10-31T08:28:16;36.00;;;16.67;;
7657;SDS011;8462;53.156;8.220;2022-10-31T08:30:45;29.80;;;14.80;;
7657;SDS011;8462;53.156;8.220;2022-10-31T08:33:32;38.73;;;16.17;;
7657;SDS011;8462;53.156;8.220;2022-10-31T08:36:11;29.53;;;16.07;;
7657;SDS011;8462;53.156;8.220;2022-10-31T08:39:01;31.97;;;14.73;;
7657;SDS011;8462;53.156;8.220;2022-10-31T08:41:29;34.43;;;14.57;;
7657;SDS011;8462;53.156;8.220;2022-10-31T08:43:58;37.73;;;16.13;;
7657;SDS011;8462;53.156;8.220;2022-10-31T08:46:25;31.50;;;15.57;;
7657;SDS011;8462;53.156;8.220;2022-10-31T08:48:53;27.33;;;15.07;;
7657;SDS011;8462;53.156;8.220;2022-10-31T08:51:22;38.13;;;16.30;;
7657;SDS011;8462;53.156;8.220;2022-10-31T08:53:51;33.30;;;16.27;;
7657;SDS011;8462;53.156;8.220;2022-10-31T08:56:57;25.47;;;14.70;;
7657;SDS011;8462;53.156;8.220;2022-10-31T08:59:34;29.00;;;14.27;;
7657;SDS011;8462;53.156;8.220;2022-10-31T09:02:24;28.60;;;15.33;;
7657;SDS011;8462;53.156;8.220;2022-10-31T09:04:57;27.50;;;14.47;;
7657;SDS011;8462;53.156;8.220;2022-10-31T09:07:24;24.30;;;14.97;;
7657;SDS011;8462;53.156;8.220;2022-10-31T09:09:52;23.13;;;14.67;;
7657;SDS011;8462;53.156;8.220;2022-10-31T09:12:20;31.77;;;17.00;;
7657;SDS011;8462;53.156;8.220;2022-10-31T09:15:04;27.80;;;15.03;;
7657;SDS011;8462;53.156;8.220;2022-10-31T09:17:46;19.77;;;13.73;;
7657;SDS011;8462;53.156;8.220;2022-10-31T09:20:29;23.47;;;14.57;;
7657;SDS011;8462;53.156;8.220;2022-10-31T09:22:56;24.60;;;14.77;;
7657;SDS011;8462;53.156;8.220;2022-10-31T09:25:24;21.00;;;13.67;;
7657;SDS011;8462;53.156;8.220;2022-10-31T09:28:12;23.00;;;14.93;;
7657;SDS011;8462;53.156;8.220;2022-10-31T09:30:40;21.03;;;13.47;;
7657;SDS011;8462;53.156;8.220;2022-10-31T09:33:09;19.47;;;13.83;;
7657;SDS011;8462;53.156;8.220;2022-10-31T09:35:43;19.57;;;13.00;;
7657;SDS011;8462;53.156;8.220;2022-10-31T09:38:11;19.03;;;12.80;;
7657;SDS011;8462;53.156;8.220;2022-10-31T09:40:41;20.67;;;12.93;;
7657;SDS011;8462;53.156;8.220;2022-10-31T09:43:14;18.47;;;13.30;;
7657;SDS011;8462;53.156;8.220;2022-10-31T09:45:52;22.90;;;13.37;;
7657;SDS011;8462;53.156;8.220;2022-10-31T09:48:40;21.73;;;13.70;;
7657;SDS011;8462;53.156;8.220;2022-10-31T09:51:25;19.83;;;13.50;;
7657;SDS011;8462;53.156;8.220;2022-10-31T09:54:20;19.97;;;14.27;;
7657;SDS011;8462;53.156;8.220;2022-10-31T09:56:52;16.80;;;12.70;;
7657;SDS011;8462;53.156;8.220;2022-10-31T09:59:24;21.47;;;14.07;;
7657;SDS011;8462;53.156;8.220;2022-10-31T10:01:55;19.53;;;12.80;;
7657;SDS011;8462;53.156;8.220;2022-10-31T10:04:34;21.27;;;13.80;;
7657;SDS011;8462;53.156;8.220;2022-10-31T10:07:19;17.80;;;13.50;;
7657;SDS011;8462;53.156;8.220;2022-10-31T10:10:13;21.43;;;13.63;;
7657;SDS011;8462;53.156;8.220;2022-10-31T10:13:11;20.50;;;13.83;;
7657;SDS011;8462;53.156;8.220;2022-10-31T10:16:03;21.97;;;14.40;;
7657;SDS011;8462;53.156;8.220;2022-10-31T10:18:56;21.33;;;13.70;;
7657;SDS011;8462;53.156;8.220;2022-10-31T10:21:36;18.73;;;13.83;;
7657;SDS011;8462;53.156;8.220;2022-10-31T10:24:20;19.20;;;13.60;;
7657;SDS011;8462;53.156;8.220;2022-10-31T10:26:57;17.47;;;12.30;;
7657;SDS011;8462;53.156;8.220;2022-10-31T10:29:33;18.80;;;12.53;;
7657;SDS011;8462;53.156;8.220;2022-10-31T10:32:07;16.63;;;12.30;;
7657;SDS011;8462;53.156;8.220;2022-10-31T10:34:39;18.37;;;12.90;;
7657;SDS011;8462;53.156;8.220;2022-10-31T10:37:16;16.87;;;12.33;;
7657;SDS011;8462;53.156;8.220;2022-10-31T10:39:53;17.93;;;13.17;;
7657;SDS011;8462;53.156;8.220;2022-10-31T10:42:23;19.43;;;13.73;;
7657;SDS011;8462;53.156;8.220;2022-10-31T10:45:13;20.20;;;14.03;;
7657;SDS011;8462;53.156;8.220;2022-10-31T10:48:02;19.80;;;13.47;;
7657;SDS011;8462;53.156;8.220;2022-10-31T10:50:35;20.67;;;13.00;;
7657;SDS011;8462;53.156;8.220;2022-10-31T10:53:09;18.13;;;12.70;;
7657;SDS011;8462;53.156;8.220;2022-10-31T10:55:49;16.47;;;11.30;;
7657;SDS011;8462;53.156;8.220;2022-10-31T10:58:22;15.93;;;11.53;;
7657;SDS011;8462;53.156;8.220;2022-10-31T11:00:49;18.43;;;11.93;;
7657;SDS011;8462;53.156;8.220;2022-10-31T11:03:19;17.60;;;10.90;;
7657;SDS011;8462;53.156;8.220;2022-10-31T11:05:47;19.13;;;11.70;;
7657;SDS011;8462;53.156;8.220;2022-10-31T11:08:23;15.97;;;10.17;;
7657;SDS011;8462;53.156;8.220;2022-10-31T11:11:02;15.90;;;9.70;;
7657;SDS011;8462;53.156;8.220;2022-10-31T11:13:33;17.07;;;10.77;;
7657;SDS011;8462;53.156;8.220;2022-10-31T11:16:02;13.70;;;10.63;;
7657;SDS011;8462;53.156;8.220;2022-10-31T11:18:33;15.43;;;9.10;;
7657;SDS011;8462;53.156;8.220;2022-10-31T11:21:03;15.97;;;10.00;;
7657;SDS011;8462;53.156;8.220;2022-10-31T11:23:31;15.93;;;10.10;;
7657;SDS011;8462;53.156;8.220;2022-10-31T11:25:59;12.73;;;9.50;;
7657;SDS011;8462;53.156;8.220;2022-10-31T11:28:32;13.30;;;9.87;;
7657;SDS011;8462;53.156;8.220;2022-10-31T11:31:05;14.33;;;9.20;;
7657;SDS011;8462;53.156;8.220;2022-10-31T11:33:34;13.20;;;9.77;;
7657;SDS011;8462;53.156;8.220;2022-10-31T11:36:09;17.13;;;10.13;;
7657;SDS011;8462;53.156;8.220;2022-10-31T11:38:42;16.07;;;9.97;;
7657;SDS011;8462;53.156;8.220;2022-10-31T11:41:12;16.33;;;9.87;;
7657;SDS011;8462;53.156;8.220;2022-10-31T11:43:45;17.30;;;10.07;;
7657;SDS011;8462;53.156;8.220;2022-10-31T11:46:17;17.57;;;9.43;;
7657;SDS011;8462;53.156;8.220;2022-10-31T11:48:47;13.77;;;9.93;;
7657;SDS011;8462;53.156;8.220;2022-10-31T11:51:19;18.03;;;9.67;;
7657;SDS011;8462;53.156;8.220;2022-10-31T11:53:50;18.03;;;9.50;;
7657;SDS011;8462;53.156;8.220;2022-10-31T11:56:19;12.20;;;7.87;;
7657;SDS011;8462;53.156;8.220;2022-10-31T11:58:54;14.13;;;8.73;;
7657;SDS011;8462;53.156;8.220;2022-10-31T12:01:26;19.20;;;10.20;;
7657;SDS011;8462;53.156;8.220;2022-10-31T12:03:59;15.90;;;9.13;;
7657;SDS011;8462;53.156;8.220;2022-10-31T12:06:33;14.23;;;8.97;;
7657;SDS011;8462;53.156;8.220;2022-10-31T12:09:01;16.67;;;9.63;;
7657;SDS011;8462;53.156;8.220;2022-10-31T12:11:36;14.20;;;9.30;;
7657;SDS011;8462;53.156;8.220;2022-10-31T12:14:13;18.10;;;10.43;;
7657;SDS011;8462;53.156;8.220;2022-10-31T12:16:48;17.03;;;9.93;;
7657;SDS011;8462;53.156;8.220;2022-10-31T12:19:22;15.23;;;9.53;;
7657;SDS011;8462;53.156;8.220;2022-10-31T12:22:02;17.37;;;10.97;;
7657;SDS011;8462;53.156;8.220;2022-10-31T12:27:44;15.00;;;9.57;;
7657;SDS011;8462;53.156;8.220;2022-10-31T12:30:27;17.33;;;10.60;;
7657;SDS011;8462;53.156;8.220;2022-10-31T12:33:07;17.00;;;10.70;;
7657;SDS011;8462;53.156;8.220;2022-10-31T12:35:48;15.07;;;9.90;;
7657;SDS011;8462;53.156;8.220;2022-10-31T12:38:27;14.57;;;9.37;;
7657;SDS011;8462;53.156;8.220;2022-10-31T12:41:07;18.73;;;10.67;;
7657;SDS011;8462;53.156;8.220;2022-10-31T12:43:45;19.37;;;11.27;;
7657;SDS011;8462;53.156;8.220;2022-10-31T12:46:18;17.53;;;10.93;;
7657;SDS011;8462;53.156;8.220;2022-10-31T12:48:56;15.20;;;10.70;;
7657;SDS011;8462;53.156;8.220;2022-10-31T12:51:37;17.43;;;11.90;;
7657;SDS011;8462;53.156;8.220;2022-10-31T12:54:15;16.63;;;10.90;;
7657;SDS011;8462;53.156;8.220;2022-10-31T12:56:53;15.50;;;10.80;;
7657;SDS011;8462;53.156;8.220;2022-10-31T12:59:28;17.13;;;11.43;;
7657;SDS011;8462;53.156;8.220;2022-10-31T13:02:00;19.67;;;11.67;;
7657;SDS011;8462;53.156;8.220;2022-10-31T13:04:39;20.17;;;12.97;;
7657;SDS011;8462;53.156;8.220;2022-10-31T13:07:11;21.43;;;12.70;;
7657;SDS011;8462;53.156;8.220;2022-10-31T13:09:44;19.07;;;12.83;;
7657;SDS011;8462;53.156;8.220;2022-10-31T13:12:17;21.90;;;15.10;;
7657;SDS011;8462;53.156;8.220;2022-10-31T13:14:49;21.67;;;12.97;;
7657;SDS011;8462;53.156;8.220;2022-10-31T13:17:25;22.87;;;14.03;;
7657;SDS011;8462;53.156;8.220;2022-10-31T13:19:58;22.83;;;14.63;;
7657;SDS011;8462;53.156;8.220;2022-10-31T13:22:39;22.50;;;14.33;;
7657;SDS011;8462;53.156;8.220;2022-10-31T13:25:11;23.63;;;15.97;;
7657;SDS011;8462;53.156;8.220;2022-10-31T13:27:43;21.70;;;14.13;;
7657;SDS011;8462;53.156;8.220;2022-10-31T13:30:16;25.53;;;16.40;;
7657;SDS011;8462;53.156;8.220;2022-10-31T13:32:45;23.60;;;15.50;;
7657;SDS011;8462;53.156;8.220;2022-10-31T13:35:18;23.20;;;16.27;;
7657;SDS011;8462;53.156;8.220;2022-10-31T13:37:50;26.00;;;16.13;;
7657;SDS011;8462;53.156;8.220;2022-10-31T13:40:26;24.00;;;15.87;;
7657;SDS011;8462;53.156;8.220;2022-10-31T13:43:02;27.77;;;16.40;;
7657;SDS011;8462;53.156;8.220;2022-10-31T13:45:48;25.93;;;16.70;;
7657;SDS011;8462;53.156;8.220;2022-10-31T13:48:18;24.33;;;15.70;;
7657;SDS011;8462;53.156;8.220;2022-10-31T13:50:58;26.93;;;17.17;;
7657;SDS011;8462;53.156;8.220;2022-10-31T13:53:35;24.20;;;16.47;;
7657;SDS011;8462;53.156;8.220;2022-10-31T13:56:09;26.03;;;16.33;;
7657;SDS011;8462;53.156;8.220;2022-10-31T13:58:54;25.23;;;17.97;;
7657;SDS011;8462;53.156;8.220;2022-10-31T14:01:29;23.90;;;16.57;;
7657;SDS011;8462;53.156;8.220;2022-10-31T14:04:02;24.00;;;16.23;;
7657;SDS011;8462;53.156;8.220;2022-10-31T14:06:35;21.70;;;14.70;;
7657;SDS011;8462;53.156;8.220;2022-10-31T14:09:22;20.27;;;12.23;;
7657;SDS011;8462;53.156;8.220;2022-10-31T14:11:52;24.87;;;14.47;;
7657;SDS011;8462;53.156;8.220;2022-10-31T14:14:20;27.27;;;14.67;;
7657;SDS011;8462;53.156;8.220;2022-10-31T14:16:55;20.10;;;13.10;;
7657;SDS011;8462;53.156;8.220;2022-10-31T14:19:24;25.30;;;13.77;;
7657;SDS011;8462;53.156;8.220;2022-10-31T14:21:52;20.47;;;14.13;;
7657;SDS011;8462;53.156;8.220;2022-10-31T14:24:33;25.07;;;14.50;;
7657;SDS011;8462;53.156;8.220;2022-10-31T14:27:02;23.60;;;13.80;;
7657;SDS011;8462;53.156;8.220;2022-10-31T14:29:50;22.37;;;13.93;;
7657;SDS011;8462;53.156;8.220;2022-10-31T14:32:21;23.50;;;15.27;;
7657;SDS011;8462;53.156;8.220;2022-10-31T14:34:52;24.07;;;15.20;;
7657;SDS011;8462;53.156;8.220;2022-10-31T14:40:26;21.73;;;13.90;;
7657;SDS011;8462;53.156;8.220;2022-10-31T14:43:07;27.10;;;17.87;;
7657;SDS011;8462;53.156;8.220;2022-10-31T14:45:47;25.07;;;17.27;;
7657;SDS011;8462;53.156;8.220;2022-10-31T14:48:29;28.07;;;17.47;;
7657;SDS011;8462;53.156;8.220;2022-10-31T14:51:17;30.20;;;18.73;;
7657;SDS011;8462;53.156;8.220;2022-10-31T14:53:46;28.67;;;17.30;;
7657;SDS011;8462;53.156;8.220;2022-10-31T14:56:19;26.57;;;16.53;;
7657;SDS011;8462;53.156;8.220;2022-10-31T14:58:49;27.63;;;18.33;;
7657;SDS011;8462;53.156;8.220;2022-10-31T15:01:18;26.47;;;16.70;;
7657;SDS011;8462;53.156;8.220;2022-10-31T15:03:50;30.33;;;17.10;;
7657;SDS011;8462;53.156;8.220;2022-10-31T15:06:18;27.03;;;18.17;;
7657;SDS011;8462;53.156;8.220;2022-10-31T15:08:48;30.60;;;17.13;;
7657;SDS011;8462;53.156;8.220;2022-10-31T15:11:17;32.10;;;18.30;;
7657;SDS011;8462;53.156;8.220;2022-10-31T15:13:45;28.20;;;17.13;;
7657;SDS011;8462;53.156;8.220;2022-10-31T15:16:14;31.90;;;19.63;;
7657;SDS011;8462;53.156;8.220;2022-10-31T15:18:46;27.10;;;18.30;;
7657;SDS011;8462;53.156;8.220;2022-10-31T15:21:17;31.77;;;18.87;;
7657;SDS011;8462;53.156;8.220;2022-10-31T15:23:46;35.00;;;18.47;;
7657;SDS011;8462;53.156;8.220;2022-10-31T15:26:14;28.37;;;17.10;;
7657;SDS011;8462;53.156;8.220;2022-10-31T15:28:44;32.33;;;17.67;;
7657;SDS011;8462;53.156;8.220;2022-10-31T15:31:15;28.93;;;18.57;;
7657;SDS011;8462;53.156;8.220;2022-10-31T15:33:46;32.90;;;18.10;;